createdAt,value
2019-03-01T00:01:21.295Z,10.93
2019-03-01T00:03:58.912Z,11.93
2019-03-01T00:06:46.067Z,8.77
2019-03-01T00:10:07.666Z,11.33
2019-03-01T00:13:00.407Z,8.07
2019-03-01T00:16:21.887Z,7.93
2019-03-01T00:19:26.522Z,8.93
2019-03-01T00:22:36.727Z,7.43
2019-03-01T00:25:36.167Z,9.57
2019-03-01T00:28:33.311Z,5.30
2019-03-01T00:31:29.783Z,7.33
2019-03-01T00:34:29.426Z,12.83
2019-03-01T00:38:12.246Z,8.13
2019-03-01T00:41:19.922Z,8.27
2019-03-01T00:44:18.408Z,8.40
2019-03-01T00:46:46.081Z,11.77
2019-03-01T00:49:13.772Z,10.03
2019-03-01T00:51:41.428Z,6.80
2019-03-01T00:54:09.101Z,6.40
2019-03-01T00:56:36.772Z,7.67
2019-03-01T00:59:04.467Z,5.17
2019-03-01T01:01:32.146Z,8.10
2019-03-01T01:03:59.978Z,5.67
2019-03-01T01:06:27.833Z,6.83
2019-03-01T01:08:55.505Z,5.47
2019-03-01T01:11:23.231Z,6.97
2019-03-01T01:13:51.119Z,10.00
2019-03-01T01:16:18.838Z,6.83
2019-03-01T01:18:46.601Z,5.47
2019-03-01T01:21:14.345Z,7.97
2019-03-01T01:23:42.089Z,6.77
2019-03-01T01:26:09.805Z,6.30
2019-03-01T01:28:37.505Z,7.77
2019-03-01T01:31:05.187Z,6.17
2019-03-01T01:33:32.891Z,7.80
2019-03-01T01:36:00.797Z,6.47
2019-03-01T01:38:28.462Z,6.97
2019-03-01T01:40:56.177Z,7.07
2019-03-01T01:43:23.851Z,5.20
2019-03-01T01:45:51.842Z,8.47
2019-03-01T01:48:19.594Z,4.07
2019-03-01T01:50:47.460Z,5.43
2019-03-01T01:53:15.103Z,6.30
2019-03-01T01:55:42.753Z,7.40
2019-03-01T01:58:10.451Z,6.33
2019-03-01T02:00:38.230Z,8.07
2019-03-01T02:03:06.941Z,5.80
2019-03-01T02:05:34.722Z,5.93
2019-03-01T02:08:02.387Z,8.77
2019-03-01T02:10:30.049Z,6.97
2019-03-01T02:12:57.791Z,6.67
2019-03-01T02:15:25.717Z,11.13
2019-03-01T02:17:53.478Z,5.87
2019-03-01T02:20:21.167Z,7.23
2019-03-01T02:22:48.904Z,6.83
2019-03-01T02:25:16.612Z,4.50
2019-03-01T02:27:44.322Z,6.07
2019-03-01T02:30:17.459Z,8.33
2019-03-01T02:32:46.794Z,8.73
2019-03-01T02:35:16.439Z,10.17
2019-03-01T02:37:44.185Z,5.43
2019-03-01T02:40:12.193Z,6.20
2019-03-01T02:42:39.874Z,6.73
2019-03-01T02:45:09.279Z,6.90
2019-03-01T02:47:36.951Z,7.87
2019-03-01T02:50:05.009Z,5.13
2019-03-01T02:52:32.969Z,4.37
2019-03-01T02:55:01.428Z,4.33
2019-03-01T02:57:32.655Z,7.90
2019-03-01T03:00:01.299Z,5.73
2019-03-01T03:02:29.108Z,3.53
2019-03-01T03:04:56.778Z,5.00
2019-03-01T03:07:38.874Z,4.37
2019-03-01T03:10:06.614Z,7.43
2019-03-01T03:12:34.490Z,6.40
2019-03-01T03:15:02.353Z,4.63
2019-03-01T03:17:30.279Z,4.20
2019-03-01T03:19:57.978Z,4.80
2019-03-01T03:22:25.862Z,4.97
2019-03-01T03:24:53.543Z,6.10
2019-03-01T03:27:21.406Z,7.00
2019-03-01T03:29:49.824Z,5.50
2019-03-01T03:32:17.498Z,7.27
2019-03-01T03:34:45.433Z,6.13
2019-03-01T03:37:13.217Z,5.70
2019-03-01T03:39:40.875Z,4.83
2019-03-01T03:42:08.539Z,4.90
2019-03-01T03:44:36.220Z,4.60
2019-03-01T03:47:03.925Z,5.00
2019-03-01T03:49:31.645Z,6.53
2019-03-01T03:51:59.346Z,4.70
2019-03-01T03:54:27.022Z,5.10
2019-03-01T03:56:54.795Z,7.67
2019-03-01T03:59:24.094Z,6.90
2019-03-01T04:01:51.785Z,3.33
2019-03-01T04:04:19.534Z,3.90
2019-03-01T04:06:47.219Z,7.30
2019-03-01T04:09:14.938Z,6.93
2019-03-01T04:11:42.639Z,4.50
2019-03-01T04:14:10.305Z,6.27
2019-03-01T04:16:37.989Z,4.17
2019-03-01T04:19:05.692Z,7.13
2019-03-01T04:21:33.601Z,6.00
2019-03-01T04:24:01.428Z,4.30
2019-03-01T04:26:29.082Z,3.20
2019-03-01T04:28:56.753Z,6.57
2019-03-01T04:31:24.664Z,5.00
2019-03-01T04:33:52.404Z,5.77
2019-03-01T04:36:20.079Z,5.13
2019-03-01T04:38:47.753Z,3.50
2019-03-01T04:41:15.424Z,5.17
2019-03-01T04:43:43.118Z,2.30
2019-03-01T04:46:10.805Z,5.80
2019-03-01T04:48:38.530Z,3.20
2019-03-01T04:51:06.217Z,4.77
2019-03-01T04:53:33.911Z,3.33
2019-03-01T04:56:01.553Z,3.87
2019-03-01T04:58:29.230Z,5.00
2019-03-01T05:00:56.989Z,3.43
2019-03-01T05:03:24.826Z,3.90
2019-03-01T05:05:52.521Z,3.13
2019-03-01T05:08:20.218Z,2.47
2019-03-01T05:10:47.893Z,2.53
2019-03-01T05:13:15.608Z,1.90
2019-03-01T05:15:43.344Z,2.30
2019-03-01T05:18:11.081Z,1.80
2019-03-01T05:20:38.872Z,2.63
2019-03-01T05:23:06.670Z,2.00
2019-03-01T05:25:34.389Z,3.20
2019-03-01T05:28:02.361Z,1.37
2019-03-01T05:30:30.078Z,4.53
2019-03-01T05:32:57.769Z,2.30
2019-03-01T05:35:25.660Z,2.40
2019-03-01T05:37:53.345Z,1.80
2019-03-01T05:40:21.000Z,3.17
2019-03-01T05:42:48.747Z,3.30
2019-03-01T05:45:18.683Z,2.50
2019-03-01T05:47:46.388Z,2.93
2019-03-01T05:50:14.295Z,1.40
2019-03-01T05:52:42.937Z,1.63
2019-03-01T05:55:10.809Z,4.80
2019-03-01T05:58:17.008Z,2.07
2019-03-01T06:00:44.909Z,3.73
2019-03-01T06:03:47.140Z,2.73
2019-03-01T06:06:17.989Z,1.73
2019-03-01T06:09:05.998Z,3.47
2019-03-01T06:12:03.095Z,3.43
2019-03-01T06:14:58.625Z,1.37
2019-03-01T06:18:11.033Z,4.60
2019-03-01T06:21:21.702Z,2.97
2019-03-01T06:24:15.914Z,3.47
2019-03-01T06:27:11.158Z,3.53
2019-03-01T06:30:07.162Z,3.67
2019-03-01T06:33:12.579Z,4.20
2019-03-01T06:36:16.091Z,3.47
2019-03-01T06:39:49.564Z,4.60
2019-03-01T06:42:50.035Z,2.63
2019-03-01T06:46:17.317Z,2.33
2019-03-01T06:48:55.089Z,4.37
2019-03-01T06:51:29.380Z,6.23
2019-03-01T06:53:57.194Z,3.47
2019-03-01T06:56:24.872Z,3.30
2019-03-01T06:59:01.560Z,4.60
2019-03-01T07:01:31.759Z,2.80
2019-03-01T07:04:12.179Z,6.00
2019-03-01T07:06:39.849Z,5.40
2019-03-01T07:09:07.598Z,3.47
2019-03-01T07:11:35.658Z,3.50
2019-03-01T07:14:03.353Z,3.63
2019-03-01T07:16:31.038Z,2.80
2019-03-01T07:18:58.750Z,6.30
2019-03-01T07:21:26.561Z,4.03
2019-03-01T07:23:54.250Z,4.07
2019-03-01T07:26:22.058Z,4.87
2019-03-01T07:28:49.685Z,5.37
2019-03-01T07:31:17.472Z,5.33
2019-03-01T07:33:45.168Z,3.77
2019-03-01T07:36:12.903Z,3.43
2019-03-01T07:38:40.550Z,3.53
2019-03-01T07:41:08.293Z,5.50
2019-03-01T07:43:36.000Z,5.80
2019-03-01T07:46:03.743Z,4.13
2019-03-01T07:48:31.596Z,3.00
2019-03-01T07:50:59.259Z,8.13
2019-03-01T07:53:27.196Z,3.50
2019-03-01T07:55:54.957Z,3.83
2019-03-01T07:58:25.625Z,2.50
2019-03-01T08:00:53.604Z,2.50
2019-03-01T08:03:21.945Z,3.73
2019-03-01T08:05:49.564Z,3.90
2019-03-01T08:08:17.242Z,3.40
2019-03-01T08:10:44.945Z,2.00
2019-03-01T08:13:14.806Z,2.87
2019-03-01T08:15:44.995Z,2.97
2019-03-01T08:18:11.961Z,3.23
2019-03-01T08:20:39.793Z,1.87
2019-03-01T08:23:07.626Z,2.07
2019-03-01T08:25:35.262Z,3.53
2019-03-01T08:28:02.958Z,2.17
2019-03-01T08:30:30.776Z,2.17
2019-03-01T08:32:58.505Z,2.80
2019-03-01T08:35:28.624Z,2.80
2019-03-01T08:37:56.887Z,0.93
2019-03-01T08:40:24.567Z,1.77
2019-03-01T08:42:52.308Z,3.43
2019-03-01T08:45:20.183Z,3.47
2019-03-01T08:47:48.832Z,1.93
2019-03-01T08:50:17.858Z,2.93
2019-03-01T08:52:45.772Z,2.60
2019-03-01T08:55:14.846Z,2.67
2019-03-01T08:57:44.554Z,3.33
2019-03-01T09:00:26.993Z,1.90
2019-03-01T09:02:55.162Z,1.60
2019-03-01T09:05:22.977Z,1.80
2019-03-01T09:07:50.724Z,2.10
2019-03-01T09:10:18.429Z,2.17
2019-03-01T09:12:46.171Z,5.43
2019-03-01T09:15:14.364Z,2.80
2019-03-01T09:17:42.249Z,3.33
2019-03-01T09:20:12.166Z,3.40
2019-03-01T09:22:39.974Z,3.43
2019-03-01T09:25:08.897Z,2.50
2019-03-01T09:27:36.643Z,3.00
2019-03-01T09:30:07.633Z,2.33
2019-03-01T09:32:35.337Z,2.30
2019-03-01T09:35:32.085Z,1.63
2019-03-01T09:37:59.773Z,1.90
2019-03-01T09:40:30.402Z,1.73
2019-03-01T09:42:58.056Z,1.83
2019-03-01T09:45:35.795Z,2.30
2019-03-01T09:47:58.345Z,5.17
2019-03-01T09:50:27.438Z,4.07
2019-03-01T09:52:55.597Z,2.23
2019-03-01T09:55:24.715Z,2.67
2019-03-01T09:57:52.650Z,2.67
2019-03-01T10:00:22.234Z,2.63
2019-03-01T10:02:49.901Z,3.40
2019-03-01T10:05:17.590Z,2.50
2019-03-01T10:07:45.428Z,3.43
2019-03-01T10:10:13.182Z,2.90
2019-03-01T10:12:41.978Z,5.13
2019-03-01T10:15:11.372Z,3.27
2019-03-01T10:17:39.300Z,2.67
2019-03-01T10:20:09.502Z,3.37
2019-03-01T10:22:37.399Z,2.87
2019-03-01T10:25:05.755Z,2.10
2019-03-01T10:27:33.457Z,2.80
2019-03-01T10:30:01.386Z,3.67
2019-03-01T10:32:29.218Z,2.23
2019-03-01T10:34:56.990Z,3.93
2019-03-01T10:37:24.901Z,4.70
2019-03-01T10:39:55.589Z,4.23
2019-03-01T10:42:23.479Z,3.67
2019-03-01T10:44:51.184Z,2.70
2019-03-01T10:47:19.152Z,2.63
2019-03-01T10:49:47.109Z,3.30
2019-03-01T10:52:15.106Z,6.73
2019-03-01T10:54:43.132Z,4.13
2019-03-01T10:57:10.857Z,5.23
2019-03-01T10:59:38.976Z,2.97
2019-03-01T11:02:06.947Z,2.33
2019-03-01T11:04:34.684Z,2.97
2019-03-01T11:07:02.962Z,3.90
2019-03-01T11:09:30.804Z,3.60
2019-03-01T11:11:58.458Z,3.63
2019-03-01T11:14:26.172Z,2.90
2019-03-01T11:16:55.339Z,3.63
2019-03-01T11:19:23.269Z,3.67
2019-03-01T11:21:51.050Z,4.33
2019-03-01T11:24:18.745Z,2.67
2019-03-01T11:26:46.449Z,3.47
2019-03-01T11:29:14.181Z,4.13
2019-03-01T11:31:43.164Z,3.03
2019-03-01T11:34:11.998Z,4.47
2019-03-01T11:36:39.709Z,4.03
2019-03-01T11:39:07.463Z,3.53
2019-03-01T11:41:36.971Z,6.20
2019-03-01T11:44:04.877Z,3.70
2019-03-01T11:46:34.082Z,5.30
2019-03-01T11:49:01.802Z,3.87
2019-03-01T11:51:29.971Z,4.27
2019-03-01T11:53:57.785Z,3.10
2019-03-01T11:56:25.799Z,7.13
2019-03-01T11:58:53.504Z,3.57
2019-03-01T12:01:21.319Z,2.97
2019-03-01T12:03:50.938Z,5.70
2019-03-01T12:06:18.602Z,3.13
2019-03-01T12:08:46.755Z,3.67
2019-03-01T12:11:14.653Z,3.00
2019-03-01T12:13:44.103Z,4.77
2019-03-01T12:16:11.757Z,5.37
2019-03-01T12:18:41.137Z,6.20
2019-03-01T12:21:08.914Z,3.47
2019-03-01T12:23:36.683Z,3.37
2019-03-01T12:26:04.439Z,3.93
2019-03-01T12:28:32.219Z,4.50
2019-03-01T12:31:02.022Z,4.13
2019-03-01T12:33:29.701Z,3.87
2019-03-01T12:35:57.379Z,4.70
2019-03-01T12:38:25.181Z,4.17
2019-03-01T12:40:52.935Z,3.43
2019-03-01T12:43:20.713Z,4.57
2019-03-01T12:45:48.753Z,4.30
2019-03-01T12:48:18.192Z,3.80
2019-03-01T12:50:46.057Z,4.07
2019-03-01T12:53:13.964Z,3.87
2019-03-01T12:55:41.806Z,6.13
2019-03-01T12:58:19.003Z,3.97
2019-03-01T13:00:39.253Z,3.53
2019-03-01T13:03:09.049Z,5.07
2019-03-01T13:05:36.759Z,4.83
2019-03-01T13:08:04.510Z,6.13
2019-03-01T13:10:32.482Z,7.53
2019-03-01T13:13:02.193Z,6.20
2019-03-01T13:15:30.523Z,4.97
2019-03-01T13:17:58.181Z,5.17
2019-03-01T13:20:26.005Z,5.07
2019-03-01T13:22:53.801Z,5.87
2019-03-01T13:25:26.013Z,6.17
2019-03-01T13:27:53.625Z,7.10
2019-03-01T13:30:21.555Z,5.77
2019-03-01T13:32:49.229Z,6.33
2019-03-01T13:35:16.958Z,7.50
2019-03-01T13:37:44.700Z,6.63
2019-03-01T13:40:13.492Z,7.00
2019-03-01T13:42:41.237Z,7.73
2019-03-01T13:45:11.865Z,7.40
2019-03-01T13:47:44.037Z,7.73
2019-03-01T13:50:11.095Z,8.03
2019-03-01T13:52:39.386Z,8.63
2019-03-01T13:55:07.754Z,8.70
2019-03-01T13:57:35.785Z,10.60
2019-03-01T14:00:04.311Z,8.50
2019-03-01T14:02:32.254Z,8.17
2019-03-01T14:05:00.048Z,8.40
2019-03-01T14:07:28.431Z,7.47
2019-03-01T14:09:56.205Z,7.90
2019-03-01T14:12:23.979Z,6.67
2019-03-01T14:14:51.845Z,10.30
2019-03-01T14:17:21.074Z,5.93
2019-03-01T14:19:49.278Z,9.37
2019-03-01T14:22:17.126Z,9.23
2019-03-01T14:24:44.853Z,9.13
2019-03-01T14:27:12.669Z,7.83
2019-03-01T14:29:40.341Z,9.30
2019-03-01T14:32:08.065Z,10.83
2019-03-01T14:34:35.733Z,9.07
2019-03-01T14:37:03.645Z,7.07
2019-03-01T14:39:31.565Z,8.00
2019-03-01T14:41:59.297Z,7.03
2019-03-01T14:44:26.957Z,5.63
2019-03-01T14:46:56.371Z,8.97
2019-03-01T14:49:24.113Z,6.93
2019-03-01T14:51:51.863Z,9.80
2019-03-01T14:54:21.261Z,7.97
2019-03-01T14:56:56.082Z,8.47
2019-03-01T14:59:51.147Z,9.17
2019-03-01T15:02:27.417Z,15.67
2019-03-01T15:04:55.201Z,13.20
2019-03-01T15:07:22.954Z,9.30
2019-03-01T15:09:53.361Z,12.70
2019-03-01T15:12:21.255Z,11.27
2019-03-01T15:14:50.011Z,13.10
2019-03-01T15:17:21.664Z,16.23
2019-03-01T15:19:48.229Z,14.43
2019-03-01T15:22:15.999Z,15.47
2019-03-01T15:24:43.672Z,16.40
2019-03-01T15:27:11.422Z,14.10
2019-03-01T15:29:39.229Z,15.67
2019-03-01T15:32:07.036Z,17.20
2019-03-01T15:34:34.759Z,16.57
2019-03-01T15:37:02.494Z,14.33
2019-03-01T15:39:30.313Z,14.60
2019-03-01T15:41:58.030Z,16.37
2019-03-01T15:44:25.818Z,13.30
2019-03-01T15:46:53.718Z,12.53
2019-03-01T15:49:23.734Z,13.43
2019-03-01T15:51:51.273Z,12.77
2019-03-01T15:54:19.001Z,14.27
2019-03-01T15:56:46.696Z,13.00
2019-03-01T15:59:14.501Z,14.67
2019-03-01T16:01:43.732Z,14.80
2019-03-01T16:04:11.898Z,18.07
2019-03-01T16:06:39.600Z,15.67
2019-03-01T16:09:15.710Z,17.83
2019-03-01T16:11:43.408Z,15.93
2019-03-01T16:14:11.171Z,17.10
2019-03-01T16:16:38.864Z,16.33
2019-03-01T16:19:06.642Z,18.93
2019-03-01T16:21:36.567Z,17.50
2019-03-01T16:24:04.978Z,19.93
2019-03-01T16:26:36.387Z,19.60
2019-03-01T16:29:03.976Z,25.87
2019-03-01T16:31:33.234Z,21.77
2019-03-01T16:34:04.281Z,23.17
2019-03-01T16:36:34.276Z,21.00
2019-03-01T16:39:03.048Z,19.43
2019-03-01T16:41:32.713Z,22.57
2019-03-01T16:44:01.275Z,21.60
2019-03-01T16:46:31.495Z,21.17
2019-03-01T16:49:01.363Z,21.33
2019-03-01T16:51:29.047Z,20.73
2019-03-01T16:53:56.717Z,21.73
2019-03-01T16:56:26.462Z,20.37
2019-03-01T16:58:54.081Z,22.33
2019-03-01T17:01:21.771Z,25.33
2019-03-01T17:03:52.802Z,22.53
2019-03-01T17:06:20.201Z,22.10
2019-03-01T17:08:48.058Z,23.33
2019-03-01T17:11:15.779Z,21.50
2019-03-01T17:13:43.630Z,20.93
2019-03-01T17:16:11.546Z,21.17
2019-03-01T17:18:39.405Z,21.50
2019-03-01T17:21:08.673Z,22.50
2019-03-01T17:23:39.206Z,23.23
2019-03-01T17:26:06.508Z,23.90
2019-03-01T17:28:35.161Z,28.53
2019-03-01T17:31:02.999Z,29.73
2019-03-01T17:33:30.670Z,27.83
2019-03-01T17:35:59.974Z,30.03
2019-03-01T17:38:27.844Z,32.00
2019-03-01T17:40:55.588Z,33.20
2019-03-01T17:43:23.261Z,34.03
2019-03-01T17:45:54.310Z,36.07
2019-03-01T17:48:22.213Z,32.97
2019-03-01T17:50:50.184Z,33.60
2019-03-01T17:53:17.857Z,38.70
2019-03-01T17:55:46.510Z,38.00
2019-03-01T17:58:14.408Z,36.00
2019-03-01T18:00:42.617Z,34.63
2019-03-01T18:03:11.067Z,37.23
2019-03-01T18:05:40.617Z,37.07
2019-03-01T18:08:08.402Z,37.40
2019-03-01T18:10:36.171Z,35.93
2019-03-01T18:13:03.931Z,38.47
2019-03-01T18:15:31.766Z,37.93
2019-03-01T18:17:59.518Z,34.90
2019-03-01T18:20:27.305Z,34.23
2019-03-01T18:22:55.110Z,36.03
2019-03-01T18:25:26.219Z,33.90
2019-03-01T18:27:53.868Z,33.90
2019-03-01T18:30:21.744Z,36.93
2019-03-01T18:32:49.555Z,38.83
2019-03-01T18:35:17.257Z,31.13
2019-03-01T18:37:44.928Z,33.17
2019-03-01T18:40:13.469Z,35.57
2019-03-01T18:42:42.442Z,31.93
2019-03-01T18:45:12.417Z,37.57
2019-03-01T18:47:40.403Z,32.03
2019-03-01T18:50:16.536Z,32.97
2019-03-01T18:52:44.342Z,34.00
2019-03-01T18:55:13.643Z,30.97
2019-03-01T18:57:42.106Z,33.03
2019-03-01T19:00:15.191Z,30.17
2019-03-01T19:02:44.939Z,35.37
2019-03-01T19:05:12.764Z,34.97
2019-03-01T19:07:40.527Z,67.70
2019-03-01T19:10:08.923Z,38.03
2019-03-01T19:12:36.851Z,33.97
2019-03-01T19:15:05.151Z,38.17
2019-03-01T19:17:36.834Z,39.07
2019-03-01T19:20:06.511Z,35.07
2019-03-01T19:22:34.590Z,35.93
2019-03-01T19:25:02.590Z,36.63
2019-03-01T19:27:30.436Z,37.60
2019-03-01T19:29:58.124Z,33.60
2019-03-01T19:32:27.644Z,36.27
2019-03-01T19:34:55.546Z,35.83
2019-03-01T19:37:23.303Z,34.00
2019-03-01T19:39:51.035Z,30.30
2019-03-01T19:42:18.842Z,31.50
2019-03-01T19:44:46.787Z,33.23
2019-03-01T19:47:16.141Z,33.60
2019-03-01T19:49:45.256Z,31.60
2019-03-01T19:52:13.532Z,33.87
2019-03-01T19:54:41.468Z,30.73
2019-03-01T19:57:09.254Z,35.53
2019-03-01T19:59:37.011Z,31.93
2019-03-01T20:02:04.694Z,30.47
2019-03-01T20:04:32.491Z,29.43
2019-03-01T20:07:01.420Z,33.53
2019-03-01T20:09:29.405Z,32.23
2019-03-01T20:11:59.280Z,30.30
2019-03-01T20:14:30.327Z,31.70
2019-03-01T20:16:58.191Z,32.70
2019-03-01T20:19:26.701Z,31.17
2019-03-01T20:21:54.496Z,33.20
2019-03-01T20:24:22.287Z,31.00
2019-03-01T20:26:50.153Z,33.83
2019-03-01T20:29:20.462Z,30.73
2019-03-01T20:31:48.336Z,32.13
2019-03-01T20:34:25.347Z,29.50
2019-03-01T20:36:53.790Z,32.40
2019-03-01T20:39:21.633Z,30.63
2019-03-01T20:41:49.390Z,29.07
2019-03-01T20:44:19.854Z,28.13
2019-03-01T20:46:47.695Z,33.13
2019-03-01T20:49:18.196Z,28.73
2019-03-01T20:51:48.370Z,32.53
2019-03-01T20:54:26.034Z,28.43
2019-03-01T20:56:54.950Z,27.37
2019-03-01T20:59:22.680Z,28.10
2019-03-01T21:01:50.601Z,29.13
2019-03-01T21:04:21.009Z,25.87
2019-03-01T21:06:48.847Z,28.33
2019-03-01T21:09:16.544Z,27.43
2019-03-01T21:11:44.238Z,28.77
2019-03-01T21:14:12.042Z,29.70
2019-03-01T21:16:41.470Z,32.70
2019-03-01T21:19:09.889Z,29.63
2019-03-01T21:21:37.846Z,27.90
2019-03-01T21:24:05.629Z,30.87
2019-03-01T21:26:33.342Z,33.33
2019-03-01T21:29:01.428Z,33.07
2019-03-01T21:31:31.725Z,30.50
2019-03-01T21:33:59.436Z,26.60
2019-03-01T21:36:28.417Z,31.67
2019-03-01T21:38:56.192Z,30.37
2019-03-01T21:41:23.978Z,29.90
2019-03-01T21:43:52.059Z,30.93
2019-03-01T21:46:20.993Z,26.80
2019-03-01T21:48:48.796Z,30.43
2019-03-01T21:51:18.417Z,32.10
2019-03-01T21:53:46.171Z,30.90
2019-03-01T21:56:13.846Z,27.90
2019-03-01T21:58:41.920Z,30.70
2019-03-01T22:01:10.517Z,34.07
2019-03-01T22:03:40.667Z,33.87
2019-03-01T22:06:08.556Z,33.33
2019-03-01T22:08:36.278Z,33.97
2019-03-01T22:11:03.913Z,31.83
2019-03-01T22:13:32.510Z,34.50
2019-03-01T22:16:01.883Z,33.77
2019-03-01T22:18:29.681Z,36.37
2019-03-01T22:20:57.416Z,35.40
2019-03-01T22:23:25.203Z,36.90
2019-03-01T22:25:52.909Z,39.23
2019-03-01T22:28:21.316Z,36.87
2019-03-01T22:30:50.046Z,36.90
2019-03-01T22:33:20.867Z,35.33
2019-03-01T22:35:47.281Z,36.33
2019-03-01T22:38:15.055Z,37.63
2019-03-01T22:40:42.939Z,42.73
2019-03-01T22:43:10.660Z,38.00
2019-03-01T22:45:38.352Z,36.07
2019-03-01T22:48:08.498Z,37.47
2019-03-01T22:50:35.681Z,37.23
2019-03-01T22:53:06.471Z,39.83
2019-03-01T22:55:33.570Z,38.13
2019-03-01T22:58:05.676Z,41.30
2019-03-01T23:01:33.545Z,39.87
2019-03-01T23:04:03.369Z,39.47
2019-03-01T23:06:31.098Z,39.73
2019-03-01T23:08:58.825Z,38.70
2019-03-01T23:11:28.694Z,38.73
2019-03-01T23:13:56.656Z,36.97
2019-03-01T23:16:24.498Z,34.13
2019-03-01T23:18:56.620Z,37.70
2019-03-01T23:21:21.990Z,33.07
2019-03-01T23:23:49.748Z,38.80
2019-03-01T23:26:21.509Z,36.57
2019-03-01T23:28:48.446Z,32.00
2019-03-01T23:31:16.159Z,30.23
2019-03-01T23:33:43.894Z,27.90
2019-03-01T23:36:11.832Z,30.03
2019-03-01T23:38:39.671Z,31.70
2019-03-01T23:41:11.309Z,32.40
2019-03-01T23:43:37.765Z,32.43
2019-03-01T23:46:05.478Z,33.53
2019-03-01T23:48:33.244Z,35.03
2019-03-01T23:51:00.949Z,36.87
2019-03-01T23:53:30.908Z,31.87
2019-03-01T23:55:58.247Z,30.17
2019-03-01T23:58:26.018Z,31.50
